createdAt,value
2023-02-27T00:00:16.609Z,98724.34
2023-02-27T00:02:43.869Z,98728.41
2023-02-27T00:05:10.615Z,98732.75
2023-02-27T00:07:37.349Z,98737.44
2023-02-27T00:10:06.730Z,98733.78
2023-02-27T00:12:37.864Z,98734.47
2023-02-27T00:15:08.474Z,98731.63
2023-02-27T00:17:35.272Z,98735.59
2023-02-27T00:20:01.915Z,98726.00
2023-02-27T00:22:28.456Z,98733.53
2023-02-27T00:24:55.085Z,98723.13
2023-02-27T00:27:21.628Z,98718.44
2023-02-27T00:29:48.581Z,98730.06
2023-02-27T00:32:15.177Z,98722.72
2023-02-27T00:34:41.984Z,98723.91
2023-02-27T00:37:10.265Z,98726.56
2023-02-27T00:39:36.831Z,98732.53
2023-02-27T00:42:03.393Z,98728.94
2023-02-27T00:44:29.948Z,98726.78
2023-02-27T00:46:56.498Z,98717.25
2023-02-27T00:49:23.062Z,98718.38
2023-02-27T00:51:49.712Z,98720.47
2023-02-27T00:54:16.276Z,98727.41
2023-02-27T00:56:42.889Z,98729.09
2023-02-27T00:59:09.883Z,98735.75
2023-02-27T01:01:36.466Z,98730.28
2023-02-27T01:04:03.166Z,98728.31
2023-02-27T01:06:30.387Z,98733.16
2023-02-27T01:08:56.923Z,98734.84
2023-02-27T01:11:24.782Z,98732.03
2023-02-27T01:13:51.873Z,98736.38
2023-02-27T01:16:18.578Z,98732.47
2023-02-27T01:18:45.638Z,98732.53
2023-02-27T01:21:12.224Z,98729.16
2023-02-27T01:23:38.778Z,98725.56
2023-02-27T01:26:05.337Z,98724.09
2023-02-27T01:28:33.775Z,98720.13
2023-02-27T01:31:00.381Z,98723.06
2023-02-27T01:33:26.951Z,98722.09
2023-02-27T01:35:53.485Z,98725.72
2023-02-27T01:38:20.085Z,98724.19
2023-02-27T01:40:46.675Z,98714.56
2023-02-27T01:43:18.305Z,98715.78
2023-02-27T01:45:47.954Z,98720.72
2023-02-27T01:48:17.163Z,98712.22
2023-02-27T01:50:46.827Z,98720.19
2023-02-27T01:53:13.369Z,98717.41
2023-02-27T01:55:39.950Z,98717.78
2023-02-27T01:58:07.022Z,98715.63
2023-02-27T02:00:33.611Z,98720.53
2023-02-27T02:03:12.367Z,98714.56
2023-02-27T02:05:40.989Z,98704.16
2023-02-27T02:08:08.163Z,98703.38
2023-02-27T02:10:34.728Z,98713.25
2023-02-27T02:13:03.522Z,98708.06
2023-02-27T02:15:32.534Z,98705.47
2023-02-27T02:18:13.419Z,98708.97
2023-02-27T02:20:48.800Z,98707.22
2023-02-27T02:23:23.102Z,98704.44
2023-02-27T02:25:53.122Z,98705.81
2023-02-27T02:28:38.848Z,98715.38
2023-02-27T02:31:21.337Z,98717.25
2023-02-27T02:34:06.754Z,98707.50
2023-02-27T02:36:51.257Z,98709.19
2023-02-27T02:39:34.264Z,98706.78
2023-02-27T02:42:04.928Z,98714.66
2023-02-27T02:44:40.165Z,98713.03
2023-02-27T02:47:12.558Z,98714.00
2023-02-27T02:49:43.388Z,98713.88
2023-02-27T02:52:09.886Z,98711.81
2023-02-27T02:54:36.345Z,98721.50
2023-02-27T02:57:05.612Z,98722.66
2023-02-27T02:59:39.041Z,98718.13
2023-02-27T03:02:12.442Z,98724.63
2023-02-27T03:04:43.441Z,98725.16
2023-02-27T03:07:30.601Z,98732.00
2023-02-27T03:10:09.339Z,98723.31
2023-02-27T03:12:36.377Z,98716.97
2023-02-27T03:15:26.330Z,98722.91
2023-02-27T03:17:54.080Z,98726.66
2023-02-27T03:20:34.584Z,98720.34
2023-02-27T03:23:02.263Z,98727.63
2023-02-27T03:25:28.867Z,98736.31
2023-02-27T03:28:15.636Z,98743.16
2023-02-27T03:30:47.201Z,98738.63
2023-02-27T03:33:25.001Z,98744.66
2023-02-27T03:35:51.500Z,98738.00
2023-02-27T03:38:27.935Z,98742.34
2023-02-27T03:41:09.948Z,98746.28
2023-02-27T03:43:46.989Z,98747.88
2023-02-27T03:46:21.778Z,98746.75
2023-02-27T03:48:50.784Z,98747.84
2023-02-27T03:51:21.188Z,98755.34
2023-02-27T03:53:49.281Z,98748.34
2023-02-27T03:56:16.899Z,98746.88
2023-02-27T03:58:43.692Z,98759.72
2023-02-27T04:01:10.309Z,98758.06
2023-02-27T04:03:37.772Z,98758.84
2023-02-27T04:06:24.606Z,98754.81
2023-02-27T04:08:54.732Z,98760.66
2023-02-27T04:11:21.216Z,98765.53
2023-02-27T04:14:02.991Z,98758.06
2023-02-27T04:16:56.028Z,98766.22
2023-02-27T04:19:22.520Z,98772.84
2023-02-27T04:21:56.758Z,98773.03
2023-02-27T04:24:29.433Z,98771.06
2023-02-27T04:26:59.614Z,98765.00
2023-02-27T04:29:48.873Z,98766.88
2023-02-27T04:32:17.440Z,98772.13
2023-02-27T04:34:45.638Z,98767.66
2023-02-27T04:37:13.403Z,98762.75
2023-02-27T04:39:42.358Z,98766.09
2023-02-27T04:42:13.492Z,98768.44
2023-02-27T04:44:40.133Z,98769.09
2023-02-27T04:47:07.244Z,98763.63
2023-02-27T04:49:44.687Z,98765.56
2023-02-27T04:52:40.760Z,98768.50
2023-02-27T04:55:12.166Z,98763.38
2023-02-27T04:57:41.334Z,98764.09
2023-02-27T05:00:09.534Z,98763.44
2023-02-27T05:02:37.225Z,98760.81
2023-02-27T05:05:05.062Z,98769.59
2023-02-27T05:07:33.156Z,98770.31
2023-02-27T05:10:04.068Z,98771.47
2023-02-27T05:12:33.738Z,98779.81
2023-02-27T05:15:02.497Z,98776.34
2023-02-27T05:17:33.409Z,98778.16
2023-02-27T05:20:00.093Z,98780.75
2023-02-27T05:22:33.448Z,98783.59
2023-02-27T05:25:02.771Z,98779.31
2023-02-27T05:27:38.337Z,98790.41
2023-02-27T05:30:06.560Z,98790.97
2023-02-27T05:32:47.903Z,98799.72
2023-02-27T05:35:20.829Z,98789.94
2023-02-27T05:37:52.339Z,98796.47
2023-02-27T05:40:21.374Z,98799.84
2023-02-27T05:42:50.111Z,98795.38
2023-02-27T05:45:21.003Z,98805.06
2023-02-27T05:47:49.486Z,98806.31
2023-02-27T05:50:17.421Z,98807.81
2023-02-27T05:52:44.503Z,98806.78
2023-02-27T05:55:18.597Z,98807.94
2023-02-27T05:57:52.982Z,98812.16
2023-02-27T06:00:33.886Z,98810.06
2023-02-27T06:03:00.498Z,98811.00
2023-02-27T06:05:27.306Z,98802.75
2023-02-27T06:07:53.809Z,98817.19
2023-02-27T06:10:20.685Z,98816.31
2023-02-27T06:12:47.931Z,98812.28
2023-02-27T06:15:14.507Z,98808.63
2023-02-27T06:17:41.130Z,98817.28
2023-02-27T06:20:08.072Z,98818.16
2023-02-27T06:22:34.771Z,98817.94
2023-02-27T06:25:01.398Z,98815.34
2023-02-27T06:27:27.978Z,98821.53
2023-02-27T06:29:54.572Z,98827.50
2023-02-27T06:32:21.523Z,98820.91
2023-02-27T06:34:48.155Z,98833.09
2023-02-27T06:37:14.698Z,98833.22
2023-02-27T06:39:41.238Z,98834.78
2023-02-27T06:42:07.779Z,98826.78
2023-02-27T06:44:34.293Z,98835.03
2023-02-27T06:47:00.864Z,98831.78
2023-02-27T06:49:27.427Z,98837.81
2023-02-27T06:51:53.980Z,98834.44
2023-02-27T06:54:51.325Z,98841.00
2023-02-27T06:57:18.022Z,98843.19
2023-02-27T06:59:45.339Z,98834.25
2023-02-27T07:02:15.580Z,98846.69
2023-02-27T07:04:42.253Z,98842.72
2023-02-27T07:07:32.939Z,98845.44
2023-02-27T07:09:55.320Z,98854.31
2023-02-27T07:12:22.087Z,98856.97
2023-02-27T07:14:48.650Z,98859.69
2023-02-27T07:17:15.188Z,98859.25
2023-02-27T07:19:41.707Z,98862.53
2023-02-27T07:22:09.733Z,98864.38
2023-02-27T07:24:36.810Z,98871.31
2023-02-27T07:27:03.439Z,98876.16
2023-02-27T07:29:30.097Z,98874.97
2023-02-27T07:31:56.732Z,98868.25
2023-02-27T07:34:23.249Z,98868.66
2023-02-27T07:36:50.243Z,98866.41
2023-02-27T07:39:16.778Z,98870.69
2023-02-27T07:41:43.348Z,98866.91
2023-02-27T07:44:16.470Z,98864.84
2023-02-27T07:46:44.866Z,98873.56
2023-02-27T07:49:11.437Z,98871.91
2023-02-27T07:51:37.993Z,98866.66
2023-02-27T07:54:04.651Z,98864.38
2023-02-27T07:56:31.270Z,98871.22
2023-02-27T07:58:57.810Z,98865.13
2023-02-27T08:01:24.342Z,98869.13
2023-02-27T08:03:50.971Z,98871.09
2023-02-27T08:06:17.571Z,98872.41
2023-02-27T08:08:44.148Z,98868.34
2023-02-27T08:11:11.045Z,98863.78
2023-02-27T08:16:24.211Z,98861.63
2023-02-27T08:18:50.789Z,98857.53
2023-02-27T08:21:17.348Z,98861.28
2023-02-27T08:23:43.871Z,98867.31
2023-02-27T08:26:10.916Z,98876.38
2023-02-27T08:28:37.796Z,98863.59
2023-02-27T08:31:04.461Z,98868.16
2023-02-27T08:33:30.988Z,98872.97
2023-02-27T08:35:57.651Z,98860.31
2023-02-27T08:38:26.308Z,98864.25
2023-02-27T08:40:55.738Z,98872.16
2023-02-27T08:43:22.421Z,98870.28
2023-02-27T08:45:49.268Z,98876.28
2023-02-27T08:48:16.535Z,98871.88
2023-02-27T08:50:43.220Z,98876.16
2023-02-27T08:53:10.072Z,98876.53
2023-02-27T08:55:36.621Z,98890.25
2023-02-27T08:58:03.193Z,98887.47
2023-02-27T09:00:29.915Z,98869.28
2023-02-27T09:02:56.784Z,98872.44
2023-02-27T09:05:23.415Z,98876.94
2023-02-27T09:07:50.491Z,98882.53
2023-02-27T09:10:17.961Z,98884.97
2023-02-27T09:12:44.535Z,98888.00
2023-02-27T09:15:11.603Z,98886.28
2023-02-27T09:17:38.172Z,98888.69
2023-02-27T09:20:05.155Z,98885.63
2023-02-27T09:22:31.828Z,98885.56
2023-02-27T09:24:58.376Z,98882.59
2023-02-27T09:27:26.075Z,98888.53
2023-02-27T09:29:58.378Z,98886.59
2023-02-27T09:32:25.651Z,98885.81
2023-02-27T09:34:52.279Z,98875.91
2023-02-27T09:37:21.904Z,98885.28
2023-02-27T09:39:48.501Z,98879.44
2023-02-27T09:42:19.249Z,98880.53
2023-02-27T09:44:59.331Z,98888.25
2023-02-27T09:47:30.078Z,98869.66
2023-02-27T09:50:07.157Z,98882.59
2023-02-27T09:52:34.713Z,98885.56
2023-02-27T09:55:01.322Z,98893.63
2023-02-27T09:57:30.861Z,98889.00
2023-02-27T10:00:00.040Z,98887.84
2023-02-27T10:02:32.476Z,98886.44
2023-02-27T10:05:03.625Z,98885.78
2023-02-27T10:07:42.500Z,98892.91
2023-02-27T10:10:09.024Z,98898.97
2023-02-27T10:12:47.800Z,98894.53
2023-02-27T10:15:16.414Z,98891.91
2023-02-27T10:17:44.398Z,98892.69
2023-02-27T10:20:14.630Z,98895.59
2023-02-27T10:22:42.856Z,98896.38
2023-02-27T10:25:28.708Z,98899.06
2023-02-27T10:27:59.146Z,98896.34
2023-02-27T10:30:30.849Z,98900.19
2023-02-27T10:33:12.983Z,98904.88
2023-02-27T10:35:40.260Z,98902.97
2023-02-27T10:38:10.859Z,98908.53
2023-02-27T10:40:37.476Z,98911.19
2023-02-27T10:43:06.202Z,98904.84
2023-02-27T10:45:33.397Z,98903.06
2023-02-27T10:48:04.447Z,98907.38
2023-02-27T10:50:32.342Z,98902.91
2023-02-27T10:53:00.250Z,98911.25
2023-02-27T10:55:36.005Z,98906.88
2023-02-27T10:58:02.882Z,98902.47
2023-02-27T11:00:31.654Z,98909.47
2023-02-27T11:02:58.204Z,98904.50
2023-02-27T11:05:34.621Z,98903.13
2023-02-27T11:08:20.761Z,98903.63
2023-02-27T11:10:54.684Z,98894.69
2023-02-27T11:13:22.395Z,98902.53
2023-02-27T11:16:05.989Z,98897.09
2023-02-27T11:18:32.739Z,98891.59
2023-02-27T11:21:25.968Z,98887.56
2023-02-27T11:23:57.420Z,98887.50
2023-02-27T11:26:25.777Z,98877.75
2023-02-27T11:29:15.125Z,98881.41
2023-02-27T11:31:49.099Z,98880.09
2023-02-27T11:34:21.919Z,98872.91
2023-02-27T11:36:49.277Z,98878.34
2023-02-27T11:39:23.239Z,98876.56
2023-02-27T11:41:49.808Z,98865.31
2023-02-27T11:44:17.679Z,98868.88
2023-02-27T11:46:50.691Z,98876.72
2023-02-27T11:49:37.484Z,98867.25
2023-02-27T11:52:12.584Z,98869.94
2023-02-27T11:54:53.887Z,98870.56
2023-02-27T11:57:40.659Z,98880.13
2023-02-27T12:00:07.400Z,98881.53
2023-02-27T12:02:46.106Z,98870.25
2023-02-27T12:05:17.247Z,98859.19
2023-02-27T12:07:48.792Z,98866.13
2023-02-27T12:10:22.265Z,98863.53
2023-02-27T12:12:52.984Z,98869.97
2023-02-27T12:15:22.493Z,98873.78
2023-02-27T12:18:04.213Z,98868.72
2023-02-27T12:20:39.951Z,98866.09
2023-02-27T12:23:11.851Z,98865.75
2023-02-27T12:25:41.197Z,98865.84
2023-02-27T12:28:08.361Z,98862.63
2023-02-27T12:30:47.182Z,98858.28
2023-02-27T12:33:16.690Z,98867.56
2023-02-27T12:35:43.718Z,98847.31
2023-02-27T12:38:12.073Z,98848.47
2023-02-27T12:40:46.074Z,98862.72
2023-02-27T12:43:31.476Z,98868.59
2023-02-27T12:46:05.204Z,98863.78
2023-02-27T12:48:41.943Z,98862.25
2023-02-27T12:51:16.746Z,98865.38
2023-02-27T12:53:55.154Z,98857.91
2023-02-27T12:56:22.137Z,98847.59
2023-02-27T12:58:58.213Z,98847.00
2023-02-27T13:01:27.980Z,98857.09
2023-02-27T13:03:57.621Z,98859.03
2023-02-27T13:06:29.785Z,98854.31
2023-02-27T13:09:02.515Z,98863.09
2023-02-27T13:11:35.104Z,98855.38
2023-02-27T13:14:03.322Z,98857.28
2023-02-27T13:16:35.980Z,98856.34
2023-02-27T13:19:06.770Z,98856.75
2023-02-27T13:21:35.344Z,98845.66
2023-02-27T13:24:02.444Z,98852.69
2023-02-27T13:26:31.000Z,98857.28
2023-02-27T13:28:57.981Z,98847.09
2023-02-27T13:31:37.678Z,98849.63
2023-02-27T13:34:18.165Z,98851.09
2023-02-27T13:36:49.472Z,98844.91
2023-02-27T13:39:34.923Z,98851.38
2023-02-27T13:42:01.469Z,98848.03
2023-02-27T13:44:29.001Z,98847.53
2023-02-27T13:46:55.590Z,98851.19
2023-02-27T13:49:29.284Z,98848.28
2023-02-27T13:51:59.660Z,98851.72
2023-02-27T13:54:26.445Z,98850.88
2023-02-27T13:56:57.650Z,98852.34
2023-02-27T13:59:31.118Z,98855.53
2023-02-27T14:01:58.682Z,98846.72
2023-02-27T14:04:26.563Z,98856.13
2023-02-27T14:07:21.360Z,98863.91
2023-02-27T14:09:48.945Z,98857.94
2023-02-27T14:12:44.646Z,98859.25
2023-02-27T14:15:18.421Z,98858.63
2023-02-27T14:17:45.731Z,98864.47
2023-02-27T14:20:12.219Z,98860.28
2023-02-27T14:22:40.128Z,98854.44
2023-02-27T14:25:12.807Z,98862.78
2023-02-27T14:27:48.154Z,98863.13
2023-02-27T14:30:29.360Z,98869.47
2023-02-27T14:32:58.301Z,98866.63
2023-02-27T14:35:25.444Z,98867.31
2023-02-27T14:37:53.563Z,98870.34
2023-02-27T14:40:29.664Z,98872.28
2023-02-27T14:43:03.535Z,98877.66
2023-02-27T14:45:31.112Z,98859.69
2023-02-27T14:47:57.708Z,98876.53
2023-02-27T14:50:32.474Z,98863.91
2023-02-27T14:52:59.089Z,98869.09
2023-02-27T14:55:30.041Z,98868.78
2023-02-27T14:58:00.964Z,98876.78
2023-02-27T15:00:44.179Z,98885.50
2023-02-27T15:03:24.266Z,98888.97
2023-02-27T15:05:51.774Z,98889.59
2023-02-27T15:08:20.380Z,98895.59
2023-02-27T15:10:47.006Z,98900.28
2023-02-27T15:13:27.978Z,98903.91
2023-02-27T15:16:16.573Z,98907.63
2023-02-27T15:18:43.457Z,98908.59
2023-02-27T15:21:12.784Z,98910.91
2023-02-27T15:23:39.358Z,98912.38
2023-02-27T15:26:06.228Z,98914.91
2023-02-27T15:28:36.180Z,98910.03
2023-02-27T15:31:02.790Z,98917.88
2023-02-27T15:33:30.035Z,98919.19
2023-02-27T15:35:57.073Z,98916.03
2023-02-27T15:38:30.946Z,98919.56
2023-02-27T15:40:57.867Z,98917.78
2023-02-27T15:43:24.998Z,98920.53
2023-02-27T15:45:51.983Z,98922.00
2023-02-27T15:48:18.553Z,98922.84
2023-02-27T15:50:49.324Z,98926.19
2023-02-27T15:53:17.947Z,98929.84
2023-02-27T15:55:50.771Z,98925.81
2023-02-27T15:58:28.516Z,98931.78
2023-02-27T16:01:00.886Z,98932.38
2023-02-27T16:03:33.177Z,98934.41
2023-02-27T16:05:59.962Z,98940.91
2023-02-27T16:08:27.444Z,98944.94
2023-02-27T16:10:54.003Z,98947.34
2023-02-27T16:13:26.785Z,98952.75
2023-02-27T16:16:19.412Z,98955.19
2023-02-27T16:18:47.386Z,98959.63
2023-02-27T16:21:15.419Z,98960.44
2023-02-27T16:23:42.204Z,98960.13
2023-02-27T16:26:08.699Z,98963.31
2023-02-27T16:28:43.081Z,98976.72
2023-02-27T16:31:20.666Z,98970.75
2023-02-27T16:33:47.901Z,98972.41
2023-02-27T16:36:16.246Z,98981.19
2023-02-27T16:38:42.956Z,98985.06
2023-02-27T16:41:12.957Z,98978.06
2023-02-27T16:43:39.568Z,98986.19
2023-02-27T16:46:06.579Z,98990.63
2023-02-27T16:48:33.171Z,98992.66
2023-02-27T16:50:59.751Z,98992.25
2023-02-27T16:53:26.312Z,98999.66
2023-02-27T16:55:55.170Z,99003.78
2023-02-27T16:58:21.852Z,98998.38
2023-02-27T17:00:48.461Z,99002.88
2023-02-27T17:03:15.052Z,99001.75
2023-02-27T17:05:41.690Z,99005.28
2023-02-27T17:08:09.603Z,99016.56
2023-02-27T17:10:36.160Z,99014.91
2023-02-27T17:13:02.678Z,99023.72
2023-02-27T17:15:29.215Z,99019.06
2023-02-27T17:17:55.884Z,99023.47
2023-02-27T17:20:23.257Z,99016.31
2023-02-27T17:22:49.925Z,99025.88
2023-02-27T17:25:16.569Z,99027.19
2023-02-27T17:27:43.838Z,99021.97
2023-02-27T17:30:10.818Z,99021.03
2023-02-27T17:32:37.376Z,99023.28
2023-02-27T17:35:04.263Z,99034.41
2023-02-27T17:37:30.776Z,99035.91
2023-02-27T17:39:57.300Z,99039.78
2023-02-27T17:42:25.869Z,99046.69
2023-02-27T17:44:52.649Z,99049.63
2023-02-27T17:47:19.380Z,99051.03
2023-02-27T17:49:46.429Z,99056.41
2023-02-27T17:52:13.123Z,99053.28
2023-02-27T17:54:39.749Z,99056.56
2023-02-27T17:57:06.929Z,99053.50
2023-02-27T17:59:33.709Z,99061.50
2023-02-27T18:02:00.305Z,99063.03
2023-02-27T18:04:27.040Z,99060.88
2023-02-27T18:06:53.797Z,99065.56
2023-02-27T18:09:20.342Z,99068.19
2023-02-27T18:11:47.025Z,99070.63
2023-02-27T18:14:13.943Z,99070.88
2023-02-27T18:16:41.437Z,99070.50
2023-02-27T18:19:08.128Z,99067.31
2023-02-27T18:21:34.899Z,99077.91
2023-02-27T18:24:01.569Z,99075.47
2023-02-27T18:26:31.114Z,99073.19
2023-02-27T18:29:00.357Z,99072.19
2023-02-27T18:31:37.576Z,99073.97
2023-02-27T18:34:04.245Z,99077.56
2023-02-27T18:36:31.617Z,99088.69
2023-02-27T18:38:58.665Z,99083.50
2023-02-27T18:41:25.403Z,99080.88
2023-02-27T18:43:52.031Z,99085.81
2023-02-27T18:46:18.856Z,99085.31
2023-02-27T18:48:45.599Z,99089.59
2023-02-27T18:51:14.505Z,99087.00
2023-02-27T18:53:41.649Z,99088.53
2023-02-27T18:56:08.997Z,99086.50
2023-02-27T18:58:35.783Z,99084.94
2023-02-27T19:01:04.306Z,99092.94
2023-02-27T19:03:31.119Z,99086.94
2023-02-27T19:05:57.925Z,99089.44
2023-02-27T19:08:31.582Z,99084.66
2023-02-27T19:10:58.568Z,99082.38
2023-02-27T19:13:25.471Z,99076.56
2023-02-27T19:15:52.307Z,99075.84
2023-02-27T19:18:18.878Z,99085.63
2023-02-27T19:20:45.399Z,99081.47
2023-02-27T19:23:11.960Z,99088.69
2023-02-27T19:25:38.546Z,99087.09
2023-02-27T19:28:06.547Z,99100.41
2023-02-27T19:30:33.090Z,99099.53
2023-02-27T19:32:59.701Z,99102.13
2023-02-27T19:35:26.304Z,99101.16
2023-02-27T19:37:57.119Z,99106.50
2023-02-27T19:40:24.421Z,99096.91
2023-02-27T19:42:51.495Z,99098.81
2023-02-27T19:45:18.020Z,99100.50
2023-02-27T19:47:45.023Z,99101.41
2023-02-27T19:50:11.822Z,99092.09
2023-02-27T19:52:41.109Z,99093.38
2023-02-27T19:55:07.963Z,99096.78
2023-02-27T19:57:35.010Z,99086.63
2023-02-27T20:00:01.551Z,99088.47
2023-02-27T20:02:28.193Z,99093.03
2023-02-27T20:04:54.814Z,99087.69
2023-02-27T20:07:21.376Z,99090.16
2023-02-27T20:09:47.944Z,99079.69
2023-02-27T20:12:14.508Z,99097.13
2023-02-27T20:14:41.210Z,99092.06
2023-02-27T20:17:08.244Z,99092.31
2023-02-27T20:19:36.540Z,99086.22
2023-02-27T20:22:03.093Z,99090.84
2023-02-27T20:24:29.677Z,99092.59
2023-02-27T20:26:59.175Z,99090.00
2023-02-27T20:29:26.469Z,99090.28
2023-02-27T20:31:53.672Z,99088.03
2023-02-27T20:34:25.871Z,99084.84
2023-02-27T20:36:53.042Z,99080.81
2023-02-27T20:39:20.157Z,99083.34
2023-02-27T20:41:46.747Z,99087.72
2023-02-27T20:44:13.517Z,99085.13
2023-02-27T20:46:40.776Z,99080.69
2023-02-27T20:49:07.453Z,99078.00
2023-02-27T20:51:36.172Z,99073.56
2023-02-27T20:54:03.609Z,99076.91
2023-02-27T20:56:31.418Z,99076.66
2023-02-27T20:58:59.772Z,99073.13
2023-02-27T21:01:26.560Z,99068.22
2023-02-27T21:03:55.738Z,99069.06
2023-02-27T21:06:22.501Z,99072.44
2023-02-27T21:08:49.612Z,99068.13
2023-02-27T21:11:17.432Z,99062.94
2023-02-27T21:13:44.358Z,99064.50
2023-02-27T21:16:11.706Z,99071.38
2023-02-27T21:18:38.377Z,99072.78
2023-02-27T21:21:05.625Z,99067.53
2023-02-27T21:23:32.277Z,99060.78
2023-02-27T21:25:59.104Z,99072.28
2023-02-27T21:28:25.905Z,99069.88
2023-02-27T21:30:54.684Z,99065.63
2023-02-27T21:33:22.447Z,99062.03
2023-02-27T21:35:49.143Z,99061.06
2023-02-27T21:38:16.565Z,99060.91
2023-02-27T21:40:43.555Z,99061.47
2023-02-27T21:43:10.092Z,99057.63
2023-02-27T21:45:41.576Z,99058.63
2023-02-27T21:48:08.407Z,99054.25
2023-02-27T21:50:36.033Z,99045.53
2023-02-27T21:53:02.556Z,99047.78
2023-02-27T21:55:29.098Z,99046.88
2023-02-27T21:57:55.653Z,99044.41
2023-02-27T22:00:26.501Z,99042.88
2023-02-27T22:02:53.426Z,99040.41
2023-02-27T22:05:20.191Z,99039.84
2023-02-27T22:07:47.013Z,99042.97
2023-02-27T22:10:13.558Z,99035.63
2023-02-27T22:12:40.105Z,99035.41
2023-02-27T22:15:06.862Z,99039.81
2023-02-27T22:17:33.445Z,99038.25
2023-02-27T22:20:00.073Z,99038.78
2023-02-27T22:22:26.716Z,99044.09
2023-02-27T22:24:53.253Z,99037.41
2023-02-27T22:27:20.163Z,99042.69
2023-02-27T22:29:46.718Z,99041.38
2023-02-27T22:32:13.275Z,99039.81
2023-02-27T22:34:39.825Z,99036.50
2023-02-27T22:37:06.392Z,99034.09
2023-02-27T22:39:32.922Z,99033.91
2023-02-27T22:41:59.520Z,99035.06
2023-02-27T22:44:26.184Z,99030.53
2023-02-27T22:46:54.719Z,99029.84
2023-02-27T22:49:22.334Z,99030.53
2023-02-27T22:51:50.944Z,99028.34
2023-02-27T22:54:18.397Z,99027.47
2023-02-27T22:56:45.097Z,99021.59
2023-02-27T22:59:11.626Z,99020.75
2023-02-27T23:01:38.248Z,99024.75
2023-02-27T23:04:06.270Z,99022.03
2023-02-27T23:06:34.194Z,99026.50
2023-02-27T23:09:01.092Z,99018.78
2023-02-27T23:11:28.155Z,99024.81
2023-02-27T23:13:54.853Z,99022.72
2023-02-27T23:16:21.436Z,99020.22
2023-02-27T23:18:49.190Z,99028.44
2023-02-27T23:21:16.490Z,99024.09
2023-02-27T23:23:43.404Z,99027.34
2023-02-27T23:26:09.940Z,99033.28
2023-02-27T23:28:36.863Z,99027.63
2023-02-27T23:31:06.316Z,99032.94
2023-02-27T23:33:32.970Z,99029.50
2023-02-27T23:35:59.579Z,99026.94
2023-02-27T23:38:26.317Z,99027.13
2023-02-27T23:40:52.870Z,99026.25
2023-02-27T23:43:38.307Z,99025.28
2023-02-27T23:46:06.197Z,99021.47
2023-02-27T23:48:32.790Z,99023.78
2023-02-27T23:50:59.367Z,99018.59
2023-02-27T23:53:26.075Z,99016.16
2023-02-27T23:55:52.647Z,99012.66
2023-02-27T23:58:19.205Z,99013.63
